sensor_id;sensor_type;location;lat;lon;timestamp;pressure;altitude;pressure_sealevel;temperature;humidity
47054;BME280;32811;52.382;5.270;2023-05-20T00:01:54;102668.97;;;10.46;100.00
47054;BME280;32811;52.382;5.270;2023-05-20T00:04:21;102637.47;;;10.31;100.00
47054;BME280;32811;52.382;5.270;2023-05-20T00:06:47;102623.34;;;10.21;100.00
47054;BME280;32811;52.382;5.270;2023-05-20T00:09:14;102653.78;;;10.30;100.00
47054;BME280;32811;52.382;5.270;2023-05-20T00:11:44;102630.25;;;10.22;100.00
47054;BME280;32811;52.382;5.270;2023-05-20T00:14:11;102640.09;;;10.32;100.00
47054;BME280;32811;52.382;5.270;2023-05-20T00:16:38;102663.19;;;10.53;100.00
47054;BME280;32811;52.382;5.270;2023-05-20T00:19:05;102612.34;;;10.27;100.00
47054;BME280;32811;52.382;5.270;2023-05-20T00:21:34;102639.53;;;10.41;100.00
47054;BME280;32811;52.382;5.270;2023-05-20T00:24:01;102622.72;;;10.28;100.00
47054;BME280;32811;52.382;5.270;2023-05-20T00:26:28;102641.13;;;10.37;100.00
47054;BME280;32811;52.382;5.270;2023-05-20T00:28:55;102661.22;;;10.46;100.00
47054;BME280;32811;52.382;5.270;2023-05-20T00:31:21;102654.09;;;10.39;100.00
47054;BME280;32811;52.382;5.270;2023-05-20T00:33:48;102672.53;;;10.50;100.00
47054;BME280;32811;52.382;5.270;2023-05-20T00:36:15;102638.13;;;10.27;100.00
47054;BME280;32811;52.382;5.270;2023-05-20T00:38:42;102637.22;;;10.25;100.00
47054;BME280;32811;52.382;5.270;2023-05-20T00:41:08;102639.69;;;10.22;100.00
47054;BME280;32811;52.382;5.270;2023-05-20T00:43:35;102638.66;;;10.16;100.00
47054;BME280;32811;52.382;5.270;2023-05-20T00:46:02;102610.47;;;9.97;100.00
47054;BME280;32811;52.382;5.270;2023-05-20T00:48:34;102661.53;;;10.30;100.00
47054;BME280;32811;52.382;5.270;2023-05-20T00:51:05;102638.59;;;10.15;100.00
47054;BME280;32811;52.382;5.270;2023-05-20T00:53:34;102624.59;;;10.08;100.00
47054;BME280;32811;52.382;5.270;2023-05-20T00:56:03;102611.47;;;10.02;100.00
47054;BME280;32811;52.382;5.270;2023-05-20T00:58:30;102650.88;;;10.22;100.00
47054;BME280;32811;52.382;5.270;2023-05-20T01:00:57;102646.19;;;10.10;100.00
47054;BME280;32811;52.382;5.270;2023-05-20T01:03:24;102629.28;;;9.94;100.00
47054;BME280;32811;52.382;5.270;2023-05-20T01:05:51;102623.72;;;9.84;100.00
47054;BME280;32811;52.382;5.270;2023-05-20T01:08:18;102612.25;;;9.75;100.00
47054;BME280;32811;52.382;5.270;2023-05-20T01:10:46;102646.47;;;9.94;100.00
47054;BME280;32811;52.382;5.270;2023-05-20T01:13:19;102638.50;;;9.88;100.00
47054;BME280;32811;52.382;5.270;2023-05-20T01:15:47;102650.56;;;9.89;100.00
47054;BME280;32811;52.382;5.270;2023-05-20T01:18:15;102633.97;;;9.82;100.00
47054;BME280;32811;52.382;5.270;2023-05-20T01:20:48;102608.47;;;9.66;100.00
47054;BME280;32811;52.382;5.270;2023-05-20T01:23:15;102643.25;;;9.77;100.00
47054;BME280;32811;52.382;5.270;2023-05-20T01:25:42;102594.91;;;9.47;100.00
47054;BME280;32811;52.382;5.270;2023-05-20T01:28:09;102603.41;;;9.45;100.00
47054;BME280;32811;52.382;5.270;2023-05-20T01:30:47;102615.41;;;9.44;100.00
47054;BME280;32811;52.382;5.270;2023-05-20T01:33:19;102580.16;;;9.21;100.00
47054;BME280;32811;52.382;5.270;2023-05-20T01:35:47;102614.28;;;9.38;100.00
47054;BME280;32811;52.382;5.270;2023-05-20T01:38:15;102600.28;;;9.31;100.00
47054;BME280;32811;52.382;5.270;2023-05-20T01:40:43;102578.47;;;9.21;100.00
47054;BME280;32811;52.382;5.270;2023-05-20T01:43:11;102588.00;;;9.24;100.00
47054;BME280;32811;52.382;5.270;2023-05-20T01:45:41;102599.56;;;9.33;100.00
47054;BME280;32811;52.382;5.270;2023-05-20T01:48:12;102564.31;;;9.10;100.00
47054;BME280;32811;52.382;5.270;2023-05-20T01:50:39;102572.13;;;9.13;100.00
47054;BME280;32811;52.382;5.270;2023-05-20T01:53:05;102570.28;;;9.09;100.00
47054;BME280;32811;52.382;5.270;2023-05-20T01:55:35;102617.53;;;9.32;100.00
47054;BME280;32811;52.382;5.270;2023-05-20T01:58:01;102617.47;;;9.30;100.00
47054;BME280;32811;52.382;5.270;2023-05-20T02:00:28;102592.03;;;9.17;100.00
47054;BME280;32811;52.382;5.270;2023-05-20T02:02:55;102592.22;;;9.22;100.00
47054;BME280;32811;52.382;5.270;2023-05-20T02:05:22;102595.63;;;9.21;100.00
47054;BME280;32811;52.382;5.270;2023-05-20T02:07:48;102578.94;;;9.11;100.00
47054;BME280;32811;52.382;5.270;2023-05-20T02:10:15;102587.91;;;9.21;100.00
47054;BME280;32811;52.382;5.270;2023-05-20T02:12:42;102581.69;;;9.16;100.00
47054;BME280;32811;52.382;5.270;2023-05-20T02:15:09;102585.78;;;9.33;100.00
47054;BME280;32811;52.382;5.270;2023-05-20T02:17:35;102590.38;;;9.40;100.00
47054;BME280;32811;52.382;5.270;2023-05-20T02:20:02;102574.25;;;9.23;100.00
47054;BME280;32811;52.382;5.270;2023-05-20T02:22:33;102606.56;;;9.38;100.00
47054;BME280;32811;52.382;5.270;2023-05-20T02:25:01;102589.88;;;9.28;100.00
47054;BME280;32811;52.382;5.270;2023-05-20T02:27:30;102618.53;;;9.35;100.00
47054;BME280;32811;52.382;5.270;2023-05-20T02:29:57;102603.53;;;9.25;100.00
47054;BME280;32811;52.382;5.270;2023-05-20T02:32:24;102563.84;;;8.98;100.00
47054;BME280;32811;52.382;5.270;2023-05-20T02:34:54;102572.72;;;9.06;100.00
47054;BME280;32811;52.382;5.270;2023-05-20T02:37:20;102577.84;;;9.04;100.00
47054;BME280;32811;52.382;5.270;2023-05-20T02:39:47;102605.06;;;9.20;100.00
47054;BME280;32811;52.382;5.270;2023-05-20T02:42:14;102565.66;;;9.00;100.00
47054;BME280;32811;52.382;5.270;2023-05-20T02:44:41;102591.34;;;9.21;100.00
47054;BME280;32811;52.382;5.270;2023-05-20T02:47:07;102594.16;;;9.27;100.00
47054;BME280;32811;52.382;5.270;2023-05-20T02:49:34;102581.19;;;9.24;100.00
47054;BME280;32811;52.382;5.270;2023-05-20T02:52:01;102585.50;;;9.25;100.00
47054;BME280;32811;52.382;5.270;2023-05-20T02:54:27;102564.59;;;9.18;100.00
47054;BME280;32811;52.382;5.270;2023-05-20T02:56:54;102555.81;;;9.12;100.00
47054;BME280;32811;52.382;5.270;2023-05-20T02:59:21;102586.44;;;9.27;100.00
47054;BME280;32811;52.382;5.270;2023-05-20T03:01:47;102567.91;;;9.15;100.00
47054;BME280;32811;52.382;5.270;2023-05-20T03:04:14;102573.13;;;9.17;100.00
47054;BME280;32811;52.382;5.270;2023-05-20T03:06:41;102581.22;;;9.26;100.00
47054;BME280;32811;52.382;5.270;2023-05-20T03:09:09;102604.75;;;9.35;100.00
47054;BME280;32811;52.382;5.270;2023-05-20T03:11:36;102602.94;;;9.32;100.00
47054;BME280;32811;52.382;5.270;2023-05-20T03:14:03;102589.72;;;9.23;100.00
47054;BME280;32811;52.382;5.270;2023-05-20T03:16:30;102573.91;;;9.14;100.00
47054;BME280;32811;52.382;5.270;2023-05-20T03:18:57;102577.41;;;9.16;100.00
47054;BME280;32811;52.382;5.270;2023-05-20T03:21:23;102576.38;;;9.11;100.00
47054;BME280;32811;52.382;5.270;2023-05-20T03:23:50;102604.41;;;9.26;100.00
47054;BME280;32811;52.382;5.270;2023-05-20T03:26:17;102599.22;;;9.24;100.00
47054;BME280;32811;52.382;5.270;2023-05-20T03:28:43;102574.19;;;8.99;100.00
47054;BME280;32811;52.382;5.270;2023-05-20T03:31:10;102588.94;;;9.03;100.00
47054;BME280;32811;52.382;5.270;2023-05-20T03:33:37;102586.38;;;9.03;100.00
47054;BME280;32811;52.382;5.270;2023-05-20T03:36:04;102609.09;;;9.13;100.00
47054;BME280;32811;52.382;5.270;2023-05-20T03:38:31;102594.97;;;9.04;100.00
47054;BME280;32811;52.382;5.270;2023-05-20T03:40:58;102593.28;;;9.04;100.00
47054;BME280;32811;52.382;5.270;2023-05-20T03:43:25;102585.44;;;9.01;100.00
47054;BME280;32811;52.382;5.270;2023-05-20T03:45:52;102577.63;;;9.00;100.00
47054;BME280;32811;52.382;5.270;2023-05-20T03:48:19;102603.34;;;9.21;100.00
47054;BME280;32811;52.382;5.270;2023-05-20T03:50:45;102580.34;;;9.03;100.00
47054;BME280;32811;52.382;5.270;2023-05-20T03:53:12;102573.22;;;8.96;100.00
47054;BME280;32811;52.382;5.270;2023-05-20T03:55:39;102583.09;;;9.07;100.00
47054;BME280;32811;52.382;5.270;2023-05-20T03:58:06;102592.53;;;9.07;100.00
47054;BME280;32811;52.382;5.270;2023-05-20T04:00:33;102606.56;;;9.15;100.00
47054;BME280;32811;52.382;5.270;2023-05-20T04:03:00;102594.50;;;9.14;100.00
47054;BME280;32811;52.382;5.270;2023-05-20T04:05:27;102577.84;;;9.04;100.00
47054;BME280;32811;52.382;5.270;2023-05-20T04:07:54;102597.97;;;9.14;100.00
47054;BME280;32811;52.382;5.270;2023-05-20T04:10:22;102591.00;;;9.12;100.00
47054;BME280;32811;52.382;5.270;2023-05-20T04:12:49;102561.19;;;8.96;100.00
47054;BME280;32811;52.382;5.270;2023-05-20T04:15:16;102553.56;;;8.99;100.00
47054;BME280;32811;52.382;5.270;2023-05-20T04:17:43;102545.66;;;8.93;100.00
47054;BME280;32811;52.382;5.270;2023-05-20T04:20:13;102566.88;;;9.10;100.00
47054;BME280;32811;52.382;5.270;2023-05-20T04:22:40;102562.56;;;9.09;100.00
47054;BME280;32811;52.382;5.270;2023-05-20T04:25:07;102568.50;;;9.08;100.00
47054;BME280;32811;52.382;5.270;2023-05-20T04:27:35;102595.81;;;9.25;100.00
47054;BME280;32811;52.382;5.270;2023-05-20T04:30:05;102602.88;;;9.31;100.00
47054;BME280;32811;52.382;5.270;2023-05-20T04:32:32;102602.25;;;9.37;100.00
47054;BME280;32811;52.382;5.270;2023-05-20T04:35:02;102575.19;;;9.25;100.00
47054;BME280;32811;52.382;5.270;2023-05-20T04:37:33;102568.28;;;9.24;100.00
47054;BME280;32811;52.382;5.270;2023-05-20T04:40:00;102579.88;;;9.35;100.00
47054;BME280;32811;52.382;5.270;2023-05-20T04:42:28;102592.41;;;9.49;100.00
47054;BME280;32811;52.382;5.270;2023-05-20T04:44:55;102606.50;;;9.59;100.00
47054;BME280;32811;52.382;5.270;2023-05-20T04:47:21;102608.41;;;9.64;100.00
47054;BME280;32811;52.382;5.270;2023-05-20T04:49:48;102605.13;;;9.68;100.00
47054;BME280;32811;52.382;5.270;2023-05-20T04:52:15;102582.44;;;9.58;100.00
47054;BME280;32811;52.382;5.270;2023-05-20T04:54:42;102577.63;;;9.69;100.00
47054;BME280;32811;52.382;5.270;2023-05-20T04:57:08;102602.47;;;9.89;100.00
47054;BME280;32811;52.382;5.270;2023-05-20T04:59:36;102586.06;;;9.87;100.00
47054;BME280;32811;52.382;5.270;2023-05-20T05:02:03;102567.84;;;9.83;100.00
47054;BME280;32811;52.382;5.270;2023-05-20T05:04:30;102585.66;;;10.01;100.00
47054;BME280;32811;52.382;5.270;2023-05-20T05:06:56;102601.69;;;10.17;100.00
47054;BME280;32811;52.382;5.270;2023-05-20T05:09:23;102603.63;;;10.23;100.00
47054;BME280;32811;52.382;5.270;2023-05-20T05:11:51;102582.84;;;10.20;100.00
47054;BME280;32811;52.382;5.270;2023-05-20T05:14:17;102555.09;;;10.13;100.00
47054;BME280;32811;52.382;5.270;2023-05-20T05:16:44;102573.06;;;10.34;100.00
47054;BME280;32811;52.382;5.270;2023-05-20T05:19:11;102583.78;;;10.46;100.00
47054;BME280;32811;52.382;5.270;2023-05-20T05:21:39;102554.22;;;10.36;100.00
47054;BME280;32811;52.382;5.270;2023-05-20T05:24:08;102579.03;;;10.58;100.00
47054;BME280;32811;52.382;5.270;2023-05-20T05:26:35;102562.97;;;10.69;100.00
47054;BME280;32811;52.382;5.270;2023-05-20T05:29:01;102577.84;;;11.05;100.00
47054;BME280;32811;52.382;5.270;2023-05-20T05:31:28;102539.59;;;11.21;100.00
47054;BME280;32811;52.382;5.270;2023-05-20T05:33:55;102546.34;;;11.47;100.00
47054;BME280;32811;52.382;5.270;2023-05-20T05:36:23;102537.75;;;12.46;100.00
47054;BME280;32811;52.382;5.270;2023-05-20T05:38:51;102534.13;;;13.15;100.00
47054;BME280;32811;52.382;5.270;2023-05-20T05:41:17;102552.78;;;13.84;100.00
47054;BME280;32811;52.382;5.270;2023-05-20T05:43:44;102544.81;;;14.23;100.00
47054;BME280;32811;52.382;5.270;2023-05-20T05:46:11;102514.72;;;14.36;100.00
47054;BME280;32811;52.382;5.270;2023-05-20T05:48:37;102519.41;;;14.57;100.00
47054;BME280;32811;52.382;5.270;2023-05-20T05:51:04;102513.50;;;14.67;100.00
47054;BME280;32811;52.382;5.270;2023-05-20T05:53:31;102559.31;;;15.25;100.00
47054;BME280;32811;52.382;5.270;2023-05-20T05:55:57;102524.47;;;15.10;100.00
47054;BME280;32811;52.382;5.270;2023-05-20T05:58:24;102541.41;;;15.51;100.00
47054;BME280;32811;52.382;5.270;2023-05-20T06:00:51;102525.06;;;15.63;100.00
47054;BME280;32811;52.382;5.270;2023-05-20T06:03:18;102547.03;;;15.86;100.00
47054;BME280;32811;52.382;5.270;2023-05-20T06:05:45;102541.16;;;16.06;100.00
47054;BME280;32811;52.382;5.270;2023-05-20T06:08:15;102525.31;;;15.84;100.00
47054;BME280;32811;52.382;5.270;2023-05-20T06:10:47;102540.03;;;15.82;100.00
47054;BME280;32811;52.382;5.270;2023-05-20T06:13:14;102545.34;;;15.91;100.00
47054;BME280;32811;52.382;5.270;2023-05-20T06:15:44;102515.72;;;15.79;100.00
47054;BME280;32811;52.382;5.270;2023-05-20T06:18:12;102560.22;;;16.05;100.00
47054;BME280;32811;52.382;5.270;2023-05-20T06:20:38;102535.94;;;16.07;100.00
47054;BME280;32811;52.382;5.270;2023-05-20T06:23:05;102569.25;;;16.47;100.00
47054;BME280;32811;52.382;5.270;2023-05-20T06:25:32;102532.03;;;16.68;100.00
47054;BME280;32811;52.382;5.270;2023-05-20T06:27:59;102523.34;;;16.67;100.00
47054;BME280;32811;52.382;5.270;2023-05-20T06:30:25;102540.09;;;17.01;100.00
47054;BME280;32811;52.382;5.270;2023-05-20T06:32:52;102536.63;;;17.04;100.00
47054;BME280;32811;52.382;5.270;2023-05-20T06:35:19;102540.75;;;16.74;100.00
47054;BME280;32811;52.382;5.270;2023-05-20T06:37:46;102519.19;;;16.98;100.00
47054;BME280;32811;52.382;5.270;2023-05-20T06:40:15;102530.50;;;16.99;100.00
47054;BME280;32811;52.382;5.270;2023-05-20T06:42:48;102529.75;;;17.32;100.00
47054;BME280;32811;52.382;5.270;2023-05-20T06:45:15;102530.63;;;17.22;100.00
47054;BME280;32811;52.382;5.270;2023-05-20T06:48:07;102551.59;;;17.54;100.00
47054;BME280;32811;52.382;5.270;2023-05-20T06:50:48;102549.88;;;17.59;100.00
47054;BME280;32811;52.382;5.270;2023-05-20T06:53:19;102533.38;;;17.79;100.00
47054;BME280;32811;52.382;5.270;2023-05-20T06:56:40;102540.38;;;17.97;100.00
47054;BME280;32811;52.382;5.270;2023-05-20T06:59:38;102531.69;;;17.87;100.00
47054;BME280;32811;52.382;5.270;2023-05-20T07:02:23;102536.91;;;17.96;100.00
47054;BME280;32811;52.382;5.270;2023-05-20T07:05:40;102536.91;;;17.95;100.00
47054;BME280;32811;52.382;5.270;2023-05-20T07:08:34;102517.75;;;18.30;100.00
47054;BME280;32811;52.382;5.270;2023-05-20T07:11:35;102526.41;;;18.59;100.00
47054;BME280;32811;52.382;5.270;2023-05-20T07:14:37;102527.31;;;18.38;99.17
47054;BME280;32811;52.382;5.270;2023-05-20T07:17:05;102507.31;;;18.22;98.84
47054;BME280;32811;52.382;5.270;2023-05-20T07:19:35;102513.41;;;18.29;97.34
47054;BME280;32811;52.382;5.270;2023-05-20T07:22:05;102516.84;;;18.37;93.82
47054;BME280;32811;52.382;5.270;2023-05-20T07:24:35;102522.97;;;17.96;94.46
47054;BME280;32811;52.382;5.270;2023-05-20T07:30:10;102518.63;;;18.21;95.36
47054;BME280;32811;52.382;5.270;2023-05-20T07:32:37;102487.28;;;17.98;96.73
47054;BME280;32811;52.382;5.270;2023-05-20T07:35:13;102499.44;;;18.40;93.47
47054;BME280;32811;52.382;5.270;2023-05-20T07:37:40;102483.72;;;18.56;92.77
47054;BME280;32811;52.382;5.270;2023-05-20T07:40:07;102508.09;;;18.67;93.47
47054;BME280;32811;52.382;5.270;2023-05-20T07:42:35;102510.59;;;19.04;92.76
47054;BME280;32811;52.382;5.270;2023-05-20T07:45:01;102495.72;;;19.18;90.54
47054;BME280;32811;52.382;5.270;2023-05-20T07:47:30;102465.34;;;18.83;88.79
47054;BME280;32811;52.382;5.270;2023-05-20T07:49:58;102484.38;;;19.13;89.10
47054;BME280;32811;52.382;5.270;2023-05-20T07:52:25;102459.09;;;19.11;86.58
47054;BME280;32811;52.382;5.270;2023-05-20T07:54:54;102463.50;;;19.07;86.17
47054;BME280;32811;52.382;5.270;2023-05-20T07:57:21;102485.28;;;19.12;82.98
47054;BME280;32811;52.382;5.270;2023-05-20T07:59:50;102489.72;;;18.93;83.06
47054;BME280;32811;52.382;5.270;2023-05-20T08:02:17;102495.50;;;19.58;84.42
47054;BME280;32811;52.382;5.270;2023-05-20T08:04:44;102496.31;;;19.63;84.09
47054;BME280;32811;52.382;5.270;2023-05-20T08:07:11;102460.56;;;19.59;83.24
47054;BME280;32811;52.382;5.270;2023-05-20T08:09:38;102463.38;;;19.30;84.52
47054;BME280;32811;52.382;5.270;2023-05-20T08:12:07;102460.84;;;19.16;81.45
47054;BME280;32811;52.382;5.270;2023-05-20T08:14:35;102485.88;;;19.60;81.71
47054;BME280;32811;52.382;5.270;2023-05-20T08:17:03;102457.38;;;19.10;82.10
47054;BME280;32811;52.382;5.270;2023-05-20T08:19:37;102450.50;;;18.92;79.57
47054;BME280;32811;52.382;5.270;2023-05-20T08:22:12;102474.56;;;19.50;81.00
47054;BME280;32811;52.382;5.270;2023-05-20T08:24:42;102486.72;;;19.65;78.16
47054;BME280;32811;52.382;5.270;2023-05-20T08:27:09;102484.94;;;19.64;80.67
47054;BME280;32811;52.382;5.270;2023-05-20T08:29:36;102486.81;;;19.50;75.36
47054;BME280;32811;52.382;5.270;2023-05-20T08:32:02;102478.91;;;19.55;74.34
47054;BME280;32811;52.382;5.270;2023-05-20T08:34:29;102480.69;;;19.51;74.91
47054;BME280;32811;52.382;5.270;2023-05-20T08:36:56;102472.00;;;19.47;78.74
47054;BME280;32811;52.382;5.270;2023-05-20T08:39:24;102477.22;;;19.47;76.58
47054;BME280;32811;52.382;5.270;2023-05-20T08:41:50;102476.31;;;19.53;75.78
47054;BME280;32811;52.382;5.270;2023-05-20T08:44:18;102471.03;;;19.61;75.09
47054;BME280;32811;52.382;5.270;2023-05-20T08:46:45;102469.41;;;19.43;73.28
47054;BME280;32811;52.382;5.270;2023-05-20T08:49:11;102472.09;;;19.31;73.56
47054;BME280;32811;52.382;5.270;2023-05-20T08:51:39;102465.81;;;19.56;73.34
47054;BME280;32811;52.382;5.270;2023-05-20T08:54:07;102461.84;;;20.19;73.34
47054;BME280;32811;52.382;5.270;2023-05-20T08:56:35;102452.31;;;20.08;72.52
47054;BME280;32811;52.382;5.270;2023-05-20T08:59:02;102458.50;;;20.00;71.62
47054;BME280;32811;52.382;5.270;2023-05-20T09:01:29;102453.34;;;19.92;69.63
47054;BME280;32811;52.382;5.270;2023-05-20T09:03:55;102459.34;;;20.02;68.74
47054;BME280;32811;52.382;5.270;2023-05-20T09:06:22;102458.44;;;20.06;70.16
47054;BME280;32811;52.382;5.270;2023-05-20T09:08:49;102450.69;;;19.94;68.11
47054;BME280;32811;52.382;5.270;2023-05-20T09:11:18;102447.97;;;20.06;65.68
47054;BME280;32811;52.382;5.270;2023-05-20T09:13:45;102444.09;;;20.42;69.15
47054;BME280;32811;52.382;5.270;2023-05-20T09:16:11;102441.34;;;20.55;68.34
47054;BME280;32811;52.382;5.270;2023-05-20T09:18:39;102450.69;;;19.94;68.11
47054;BME280;32811;52.382;5.270;2023-05-20T09:21:06;102445.97;;;20.32;66.73
47054;BME280;32811;52.382;5.270;2023-05-20T09:23:35;102438.91;;;20.38;65.50
47054;BME280;32811;52.382;5.270;2023-05-20T09:26:03;102435.91;;;19.89;66.48
47054;BME280;32811;52.382;5.270;2023-05-20T09:28:29;102440.09;;;20.06;65.19
47054;BME280;32811;52.382;5.270;2023-05-20T09:30:57;102439.25;;;20.04;64.66
47054;BME280;32811;52.382;5.270;2023-05-20T09:33:28;102429.22;;;19.44;66.83
47054;BME280;32811;52.382;5.270;2023-05-20T09:36:09;102434.47;;;19.45;68.23
47054;BME280;32811;52.382;5.270;2023-05-20T09:38:37;102435.94;;;19.80;66.45
47054;BME280;32811;52.382;5.270;2023-05-20T09:41:06;102435.44;;;19.32;68.28
47054;BME280;32811;52.382;5.270;2023-05-20T09:43:35;102437.41;;;18.88;66.55
47054;BME280;32811;52.382;5.270;2023-05-20T09:46:03;102429.75;;;18.33;67.56
47054;BME280;32811;52.382;5.270;2023-05-20T09:48:30;102432.25;;;18.62;67.95
47054;BME280;32811;52.382;5.270;2023-05-20T09:51:00;102417.88;;;19.42;67.07
47054;BME280;32811;52.382;5.270;2023-05-20T09:53:27;102422.41;;;19.21;68.86
47054;BME280;32811;52.382;5.270;2023-05-20T09:55:55;102427.75;;;19.03;66.50
47054;BME280;32811;52.382;5.270;2023-05-20T09:58:22;102422.63;;;18.72;67.01
47054;BME280;32811;52.382;5.270;2023-05-20T10:00:51;102434.09;;;18.25;68.84
47054;BME280;32811;52.382;5.270;2023-05-20T10:03:20;102417.53;;;18.40;70.54
47054;BME280;32811;52.382;5.270;2023-05-20T10:16:50;102400.03;;;18.56;66.52
47054;BME280;32811;52.382;5.270;2023-05-20T10:22:02;102400.56;;;19.25;65.15
47054;BME280;32811;52.382;5.270;2023-05-20T10:24:33;102396.41;;;20.08;65.27
47054;BME280;32811;52.382;5.270;2023-05-20T10:27:02;102387.53;;;20.21;62.07
47054;BME280;32811;52.382;5.270;2023-05-20T10:29:41;102397.72;;;20.47;60.77
47054;BME280;32811;52.382;5.270;2023-05-20T10:32:08;102390.34;;;20.79;60.52
47054;BME280;32811;52.382;5.270;2023-05-20T10:34:45;102386.28;;;20.51;61.31
47054;BME280;32811;52.382;5.270;2023-05-20T10:37:26;102374.19;;;19.48;62.53
47054;BME280;32811;52.382;5.270;2023-05-20T10:40:07;102381.50;;;19.02;65.80
47054;BME280;32811;52.382;5.270;2023-05-20T10:42:34;102370.13;;;19.11;64.87
47054;BME280;32811;52.382;5.270;2023-05-20T10:45:00;102373.16;;;19.66;64.69
47054;BME280;32811;52.382;5.270;2023-05-20T10:47:27;102361.09;;;19.50;63.16
47054;BME280;32811;52.382;5.270;2023-05-20T10:49:53;102384.44;;;19.79;61.47
47054;BME280;32811;52.382;5.270;2023-05-20T10:52:20;102378.69;;;20.28;62.23
47054;BME280;32811;52.382;5.270;2023-05-20T10:54:57;102354.63;;;20.68;59.12
47054;BME280;32811;52.382;5.270;2023-05-20T10:57:28;102360.50;;;20.11;60.81
47054;BME280;32811;52.382;5.270;2023-05-20T10:59:55;102347.56;;;20.01;60.60
47054;BME280;32811;52.382;5.270;2023-05-20T11:02:21;102349.00;;;20.26;61.40
47054;BME280;32811;52.382;5.270;2023-05-20T11:04:54;102341.91;;;20.36;60.68
47054;BME280;32811;52.382;5.270;2023-05-20T11:07:28;102325.25;;;21.02;59.47
47054;BME280;32811;52.382;5.270;2023-05-20T11:09:55;102341.38;;;20.76;58.68
47054;BME280;32811;52.382;5.270;2023-05-20T11:12:24;102337.41;;;20.44;58.77
47054;BME280;32811;52.382;5.270;2023-05-20T11:14:51;102316.44;;;20.44;58.04
47054;BME280;32811;52.382;5.270;2023-05-20T11:17:18;102311.16;;;20.47;58.89
47054;BME280;32811;52.382;5.270;2023-05-20T11:19:47;102324.81;;;20.72;57.51
47054;BME280;32811;52.382;5.270;2023-05-20T11:22:13;102328.81;;;20.33;57.20
47054;BME280;32811;52.382;5.270;2023-05-20T11:24:40;102331.34;;;19.57;55.25
47054;BME280;32811;52.382;5.270;2023-05-20T11:27:07;102326.19;;;19.46;57.40
47054;BME280;32811;52.382;5.270;2023-05-20T11:29:34;102326.03;;;19.69;58.64
47054;BME280;32811;52.382;5.270;2023-05-20T11:32:00;102337.03;;;20.02;58.28
47054;BME280;32811;52.382;5.270;2023-05-20T11:34:37;102330.44;;;19.61;57.21
47054;BME280;32811;52.382;5.270;2023-05-20T11:37:08;102326.41;;;20.15;58.46
47054;BME280;32811;52.382;5.270;2023-05-20T11:39:36;102312.69;;;20.65;57.58
47054;BME280;32811;52.382;5.270;2023-05-20T11:42:03;102305.72;;;21.20;55.92
47054;BME280;32811;52.382;5.270;2023-05-20T11:44:31;102304.16;;;21.07;56.95
47054;BME280;32811;52.382;5.270;2023-05-20T11:46:59;102308.94;;;20.83;55.42
47054;BME280;32811;52.382;5.270;2023-05-20T11:49:26;102309.44;;;21.05;56.91
47054;BME280;32811;52.382;5.270;2023-05-20T11:51:53;102298.38;;;21.41;56.76
47054;BME280;32811;52.382;5.270;2023-05-20T11:54:22;102309.50;;;21.02;55.49
47054;BME280;32811;52.382;5.270;2023-05-20T11:56:49;102304.50;;;20.20;55.20
47054;BME280;32811;52.382;5.270;2023-05-20T11:59:16;102302.09;;;20.03;56.13
47054;BME280;32811;52.382;5.270;2023-05-20T12:01:43;102299.19;;;20.25;58.57
47054;BME280;32811;52.382;5.270;2023-05-20T12:04:11;102283.91;;;20.58;56.82
47054;BME280;32811;52.382;5.270;2023-05-20T12:06:42;102288.91;;;20.76;57.43
47054;BME280;32811;52.382;5.270;2023-05-20T12:09:09;102287.97;;;20.80;56.03
47054;BME280;32811;52.382;5.270;2023-05-20T12:11:37;102287.41;;;21.14;56.84
47054;BME280;32811;52.382;5.270;2023-05-20T12:14:07;102286.56;;;21.13;57.63
47054;BME280;32811;52.382;5.270;2023-05-20T12:16:34;102277.13;;;21.03;55.91
47054;BME280;32811;52.382;5.270;2023-05-20T12:19:02;102287.47;;;21.11;56.08
47054;BME280;32811;52.382;5.270;2023-05-20T12:21:29;102275.44;;;20.99;57.36
47054;BME280;32811;52.382;5.270;2023-05-20T12:24:00;102262.41;;;20.91;57.92
47054;BME280;32811;52.382;5.270;2023-05-20T12:26:27;102284.94;;;21.06;55.68
47054;BME280;32811;52.382;5.270;2023-05-20T12:28:55;102272.75;;;21.02;54.67
47054;BME280;32811;52.382;5.270;2023-05-20T12:31:22;102277.38;;;20.85;57.47
47054;BME280;32811;52.382;5.270;2023-05-20T12:33:49;102272.28;;;20.77;57.71
47054;BME280;32811;52.382;5.270;2023-05-20T12:36:16;102262.41;;;20.91;58.80
47054;BME280;32811;52.382;5.270;2023-05-20T12:38:42;102266.03;;;20.86;55.95
47054;BME280;32811;52.382;5.270;2023-05-20T12:41:09;102266.72;;;20.35;59.44
47054;BME280;32811;52.382;5.270;2023-05-20T12:43:36;102261.25;;;20.52;57.57
47054;BME280;32811;52.382;5.270;2023-05-20T12:46:03;102259.94;;;20.82;58.41
47054;BME280;32811;52.382;5.270;2023-05-20T12:48:30;102249.97;;;21.04;57.54
47054;BME280;32811;52.382;5.270;2023-05-20T12:50:57;102260.78;;;20.83;57.07
47054;BME280;32811;52.382;5.270;2023-05-20T12:53:24;102254.91;;;20.67;57.24
47054;BME280;32811;52.382;5.270;2023-05-20T12:55:50;102255.56;;;20.21;57.46
47054;BME280;32811;52.382;5.270;2023-05-20T12:58:17;102264.59;;;19.95;58.83
47054;BME280;32811;52.382;5.270;2023-05-20T13:00:44;102270.81;;;19.89;60.47
47054;BME280;32811;52.382;5.270;2023-05-20T13:03:11;102263.69;;;19.98;59.65
47054;BME280;32811;52.382;5.270;2023-05-20T13:05:37;102263.00;;;19.85;59.04
47054;BME280;32811;52.382;5.270;2023-05-20T13:08:04;102258.69;;;19.79;57.97
47054;BME280;32811;52.382;5.270;2023-05-20T13:10:31;102255.94;;;19.90;59.50
47054;BME280;32811;52.382;5.270;2023-05-20T13:12:59;102241.94;;;19.93;60.29